Time;durP1;ratioP1;P1;durP2;ratioP2;P2;SDS_P1;SDS_P2;PMS_P1;PMS_P2;Temp;Humidity;BMP_temperature;BMP_pressure;BME280_temperature;BME280_humidity;BME280_pressure;Samples;Min_cycle;Max_cycle;Signal;HPM_P1;HPM_P2
2021/05/14 00:02:03;;;;;;;10.63;9.50;;;10.30;99.90;;;;;;5083302;28;20048;-78
2021/05/14 00:04:30;;;;;;;11.38;10.23;;;10.30;99.90;;;;;;5103145;28;20048;-79
2021/05/14 00:06:57;;;;;;;10.32;8.60;;;10.30;99.90;;;;;;5087317;28;20484;-79
2021/05/14 00:09:23;;;;;;;9.95;9.05;;;10.30;99.90;;;;;;5104726;28;20071;-78
2021/05/14 00:11:50;;;;;;;10.60;8.30;;;10.30;99.90;;;;;;5087149;28;20081;-79
2021/05/14 00:14:18;;;;;;;9.40;8.50;;;10.30;99.90;;;;;;5103969;28;20515;-78
2021/05/14 00:16:45;;;;;;;11.77;9.57;;;10.30;99.90;;;;;;5085933;28;20079;-79
2021/05/14 00:19:12;;;;;;;9.65;8.85;;;10.20;99.90;;;;;;5084942;28;20073;-78
2021/05/14 00:21:39;;;;;;;12.60;9.38;;;10.30;99.90;;;;;;5099766;28;20444;-77
2021/05/14 00:24:06;;;;;;;12.30;9.82;;;10.30;99.90;;;;;;5080036;28;20127;-77
2021/05/14 00:26:33;;;;;;;12.40;10.35;;;10.40;99.90;;;;;;5097869;28;20044;-78
2021/05/14 00:28:59;;;;;;;11.55;10.35;;;10.30;99.90;;;;;;5098677;28;20055;-77
2021/05/14 00:31:26;;;;;;;11.18;10.13;;;10.30;99.90;;;;;;5102113;28;20048;-78
2021/05/14 00:33:53;;;;;;;12.98;11.45;;;10.30;99.90;;;;;;5080407;28;20421;-78
2021/05/14 00:36:20;;;;;;;12.18;11.13;;;10.30;99.90;;;;;;5098319;28;20052;-78
2021/05/14 00:38:46;;;;;;;15.40;13.35;;;10.30;99.90;;;;;;5099940;28;20504;-78
2021/05/14 00:41:13;;;;;;;19.83;13.55;;;10.30;99.90;;;;;;5080696;28;20071;-77
2021/05/14 00:43:40;;;;;;;17.05;14.38;;;10.30;99.90;;;;;;5085724;28;20075;-77
2021/05/14 00:46:07;;;;;;;18.48;14.00;;;10.10;99.90;;;;;;5103469;28;20122;-78
2021/05/14 00:48:36;;;;;;;15.40;13.57;;;10.10;99.90;;;;;;5103164;28;20063;-78
2021/05/14 00:51:03;;;;;;;17.90;14.27;;;10.20;99.90;;;;;;5103553;28;20052;-78
2021/05/14 00:53:30;;;;;;;19.48;15.38;;;10.20;99.90;;;;;;5101623;28;20048;-78
2021/05/14 00:55:56;;;;;;;19.80;13.93;;;10.20;99.90;;;;;;5100633;28;20055;-78
2021/05/14 00:58:23;;;;;;;18.40;14.23;;;10.20;99.90;;;;;;5095565;28;20091;-78
2021/05/14 01:00:50;;;;;;;15.25;11.50;;;10.20;99.90;;;;;;5077185;28;20104;-78
2021/05/14 01:03:17;;;;;;;15.23;11.38;;;10.10;99.90;;;;;;5094616;28;20048;-77
2021/05/14 01:05:43;;;;;;;11.52;9.88;;;10.10;99.90;;;;;;5095313;28;20048;-78
2021/05/14 01:08:11;;;;;;;12.77;10.90;;;10.20;99.90;;;;;;5077543;28;20518;-78
2021/05/14 01:10:38;;;;;;;11.48;10.27;;;10.10;99.90;;;;;;5095747;28;20129;-77
2021/05/14 01:13:05;;;;;;;10.50;9.40;;;10.20;99.90;;;;;;5095967;28;20048;-78
2021/05/14 01:15:32;;;;;;;12.60;10.02;;;10.20;99.90;;;;;;5095171;28;20047;-78
2021/05/14 01:17:59;;;;;;;12.32;10.18;;;10.20;99.90;;;;;;5077233;28;20055;-78
2021/05/14 01:20:30;;;;;;;10.32;9.32;;;10.20;99.90;;;;;;5094745;28;20046;-78
2021/05/14 01:22:57;;;;;;;9.45;8.55;;;10.10;99.90;;;;;;5078919;28;20047;-77
2021/05/14 01:25:24;;;;;;;9.23;8.25;;;10.20;99.90;;;;;;5097869;28;20048;-78
2021/05/14 01:27:52;;;;;;;9.63;8.73;;;10.20;99.90;;;;;;5096652;28;20056;-77
2021/05/14 01:30:20;;;;;;;13.98;9.27;;;10.10;99.90;;;;;;5104080;28;20048;-78
2021/05/14 01:32:47;;;;;;;10.25;8.75;;;10.10;99.90;;;;;;5099185;28;20074;-77
2021/05/14 01:35:14;;;;;;;14.90;9.90;;;10.10;99.90;;;;;;5096776;28;20055;-78
2021/05/14 01:37:41;;;;;;;10.63;9.43;;;10.00;99.90;;;;;;5102234;28;20048;-78
2021/05/14 01:40:10;;;;;;;10.27;8.65;;;10.00;99.90;;;;;;5101316;28;20051;-78
2021/05/14 01:42:42;;;;;;;9.80;8.63;;;10.00;99.90;;;;;;5100858;28;20048;-78
2021/05/14 01:45:10;;;;;;;9.10;8.30;;;10.00;99.90;;;;;;5101633;28;20120;-78
2021/05/14 01:47:37;;;;;;;9.77;8.75;;;10.00;99.90;;;;;;5101876;28;20503;-78
2021/05/14 01:50:04;;;;;;;12.10;8.85;;;10.00;99.90;;;;;;5100980;28;20081;-78
2021/05/14 01:52:31;;;;;;;8.73;7.88;;;10.00;99.90;;;;;;5082974;28;20535;-78
2021/05/14 01:55:00;;;;;;;9.27;8.18;;;10.00;99.90;;;;;;5100488;28;20048;-78
2021/05/14 01:57:30;;;;;;;9.02;8.15;;;9.90;99.90;;;;;;5082783;28;20093;-78
2021/05/14 01:59:57;;;;;;;11.18;8.57;;;9.90;99.90;;;;;;5101946;28;20048;-78
2021/05/14 02:02:24;;;;;;;9.60;8.70;;;9.80;99.90;;;;;;5085576;28;20361;-78
2021/05/14 02:04:51;;;;;;;10.95;9.85;;;9.90;99.90;;;;;;5104078;28;20044;-78
2021/05/14 02:07:17;;;;;;;16.75;13.32;;;9.90;99.90;;;;;;5080583;28;20481;-78
2021/05/14 02:09:44;;;;;;;19.67;14.55;;;10.00;99.90;;;;;;5100167;28;20074;-78
2021/05/14 02:12:11;;;;;;;19.00;15.40;;;10.00;99.90;;;;;;5102178;28;20052;-78
2021/05/14 02:14:38;;;;;;;25.77;16.38;;;10.00;99.90;;;;;;5078861;28;20484;-78
2021/05/14 02:17:05;;;;;;;16.85;14.60;;;9.90;99.90;;;;;;5096470;28;20095;-78
2021/05/14 02:19:32;;;;;;;19.15;14.10;;;9.80;99.90;;;;;;5096841;28;20052;-77
2021/05/14 02:21:59;;;;;;;23.98;16.85;;;9.80;99.90;;;;;;5096924;28;20417;-78
2021/05/14 02:24:26;;;;;;;20.50;16.27;;;9.80;99.90;;;;;;5096563;28;20044;-78
2021/05/14 02:26:53;;;;;;;20.60;15.13;;;9.80;99.90;;;;;;5096985;28;20051;-78
2021/05/14 02:29:19;;;;;;;18.40;12.75;;;9.80;99.90;;;;;;5078508;28;20083;-78
2021/05/14 02:31:46;;;;;;;14.95;12.20;;;9.80;99.90;;;;;;5081896;28;20044;-78
2021/05/14 02:34:13;;;;;;;16.10;12.43;;;9.80;99.90;;;;;;5102934;28;20051;-78
2021/05/14 02:36:40;;;;;;;14.80;12.18;;;9.80;99.90;;;;;;5103937;28;20465;-78
2021/05/14 02:39:08;;;;;;;14.43;11.25;;;9.80;99.90;;;;;;5103865;28;20043;-78
2021/05/14 02:41:36;;;;;;;13.65;12.25;;;9.80;99.90;;;;;;5102206;28;20055;-78
2021/05/14 02:44:05;;;;;;;11.98;10.77;;;9.90;99.90;;;;;;5103150;28;20048;-78
2021/05/14 02:46:33;;;;;;;13.70;12.25;;;9.90;99.90;;;;;;5105923;28;20108;-78
2021/05/14 02:49:00;;;;;;;18.13;13.18;;;9.90;99.90;;;;;;5107768;28;20101;-78
2021/05/14 02:51:27;;;;;;;12.23;9.63;;;9.80;99.90;;;;;;5107760;28;20051;-78
2021/05/14 02:53:53;;;;;;;10.98;9.65;;;9.90;99.90;;;;;;5107766;28;20055;-78
2021/05/14 02:56:20;;;;;;;15.88;11.55;;;9.90;99.90;;;;;;5107059;28;20051;-78
2021/05/14 02:58:47;;;;;;;19.45;12.55;;;9.80;99.90;;;;;;5105493;28;20060;-78
2021/05/14 03:01:14;;;;;;;21.52;13.95;;;9.80;99.90;;;;;;5086976;28;20051;-77
2021/05/14 03:03:41;;;;;;;28.88;16.05;;;9.80;99.90;;;;;;5105633;28;20131;-78
2021/05/14 03:06:07;;;;;;;23.88;14.40;;;9.80;99.90;;;;;;5105831;28;20055;-78
2021/05/14 03:08:35;;;;;;;20.67;13.80;;;9.80;99.90;;;;;;5105576;28;20044;-78
2021/05/14 03:11:02;;;;;;;19.20;12.93;;;9.80;99.90;;;;;;5087307;28;20040;-78
2021/05/14 03:13:29;;;;;;;39.83;17.73;;;9.80;99.90;;;;;;5104693;28;20044;-78
2021/05/14 03:15:56;;;;;;;24.77;16.38;;;9.80;99.90;;;;;;5084236;28;20087;-77
2021/05/14 03:18:23;;;;;;;29.75;18.35;;;9.80;99.90;;;;;;5097885;28;20282;-78
2021/05/14 03:20:50;;;;;;;30.38;18.83;;;9.70;99.90;;;;;;5103928;28;20044;-78
2021/05/14 03:23:17;;;;;;;27.40;18.60;;;9.80;99.90;;;;;;5083799;28;20117;-78
2021/05/14 03:25:44;;;;;;;29.30;18.35;;;9.80;99.90;;;;;;5101940;28;20074;-79
2021/05/14 03:28:11;;;;;;;26.40;17.10;;;9.90;99.90;;;;;;5108803;28;20465;-78
2021/05/14 03:30:38;;;;;;;28.95;18.80;;;9.90;99.90;;;;;;5107743;28;20105;-78
2021/05/14 03:33:05;;;;;;;36.13;20.13;;;9.90;99.90;;;;;;5107429;28;20080;-79
2021/05/14 03:35:32;;;;;;;35.22;18.70;;;9.90;99.90;;;;;;5107287;28;20044;-79
2021/05/14 03:37:59;;;;;;;35.72;20.10;;;9.90;99.90;;;;;;5087238;28;20089;-79
2021/05/14 03:42:56;;;;;;;28.38;18.33;;;9.80;99.90;;;;;;5103849;28;20048;-78
2021/05/14 03:45:23;;;;;;;34.42;18.75;;;9.80;99.90;;;;;;5104799;28;20044;-78
2021/05/14 03:47:52;;;;;;;29.77;17.83;;;9.80;99.90;;;;;;5102457;28;20048;-77
2021/05/14 03:50:19;;;;;;;26.85;17.42;;;9.80;99.90;;;;;;5101676;28;20108;-77
2021/05/14 03:52:46;;;;;;;34.65;19.13;;;9.80;99.90;;;;;;5100771;28;20044;-78
2021/05/14 03:55:13;;;;;;;37.95;21.52;;;9.90;99.90;;;;;;5101436;28;20094;-78
2021/05/14 03:57:40;;;;;;;49.20;23.33;;;9.90;99.90;;;;;;5083470;28;20052;-78
2021/05/14 04:00:07;;;;;;;50.63;23.48;;;9.90;99.90;;;;;;5084138;28;20135;-77
2021/05/14 04:02:34;;;;;;;48.15;22.33;;;9.90;99.90;;;;;;5098314;28;20048;-78
2021/05/14 04:05:01;;;;;;;59.72;26.10;;;9.70;99.90;;;;;;5103153;28;20536;-78
2021/05/14 04:07:28;;;;;;;52.80;24.38;;;9.70;99.90;;;;;;5084157;28;20094;-78
2021/05/14 04:15:09;;;;;;;28.00;17.63;;;9.90;99.90;;;;;;5103956;28;20074;-78
2021/05/14 04:17:37;;;;;;;26.83;16.75;;;10.00;99.90;;;;;;5103997;28;20059;-78
2021/05/14 04:20:05;;;;;;;33.05;17.80;;;10.00;99.90;;;;;;5103872;28;20107;-77
2021/05/14 04:22:32;;;;;;;31.60;19.85;;;10.00;99.90;;;;;;5104402;28;20417;-78
2021/05/14 04:24:59;;;;;;;32.58;20.42;;;10.00;99.90;;;;;;5104402;28;20044;-78
2021/05/14 04:27:26;;;;;;;17.50;13.85;;;10.10;99.90;;;;;;5107529;28;20093;-78
2021/05/14 04:29:52;;;;;;;16.50;13.45;;;10.10;99.90;;;;;;5107838;28;20052;-78
2021/05/14 04:32:19;;;;;;;21.70;15.05;;;10.10;99.90;;;;;;5107188;28;20048;-78
2021/05/14 04:34:47;;;;;;;17.35;13.43;;;10.10;99.90;;;;;;5107785;28;20048;-78
2021/05/14 04:37:14;;;;;;;14.10;11.48;;;10.10;99.90;;;;;;5108616;28;20048;-78
2021/05/14 04:39:42;;;;;;;13.75;10.90;;;10.10;99.90;;;;;;5090307;28;20075;-78
2021/05/14 04:42:09;;;;;;;14.27;12.38;;;10.20;99.90;;;;;;5107363;28;20044;-79
2021/05/14 04:44:36;;;;;;;20.10;13.50;;;10.20;99.90;;;;;;5107899;28;20048;-78
2021/05/14 04:47:02;;;;;;;13.88;11.27;;;10.20;99.90;;;;;;5107377;28;20058;-79
2021/05/14 04:49:29;;;;;;;18.95;13.55;;;10.10;99.90;;;;;;5106959;28;20571;-78
2021/05/14 04:51:56;;;;;;;39.25;19.88;;;10.10;99.90;;;;;;5107206;28;20097;-78
2021/05/14 04:54:25;;;;;;;34.83;21.13;;;10.10;99.90;;;;;;5105551;28;20055;-78
2021/05/14 04:56:53;;;;;;;38.17;21.70;;;10.20;99.90;;;;;;5099726;28;20082;-78
2021/05/14 04:59:19;;;;;;;36.10;22.30;;;10.10;99.90;;;;;;5106902;28;20527;-78
2021/05/14 05:01:46;;;;;;;33.63;22.10;;;10.20;99.90;;;;;;5106317;28;20048;-78
2021/05/14 05:04:16;;;;;;;36.30;22.60;;;10.20;99.90;;;;;;5107021;28;20047;-78
2021/05/14 05:06:43;;;;;;;35.00;21.27;;;10.20;99.90;;;;;;5105601;28;20083;-78
2021/05/14 05:09:10;;;;;;;28.10;16.95;;;10.20;99.90;;;;;;5105780;28;20044;-78
2021/05/14 05:11:37;;;;;;;30.30;18.33;;;10.20;99.90;;;;;;5106187;28;20048;-78
2021/05/14 05:14:04;;;;;;;28.52;17.38;;;10.20;99.90;;;;;;5109744;28;20052;-79
2021/05/14 05:16:30;;;;;;;26.38;16.88;;;10.10;99.90;;;;;;5109884;28;20055;-78
2021/05/14 05:18:57;;;;;;;28.42;18.15;;;10.10;99.90;;;;;;5090243;28;20055;-78
2021/05/14 05:21:24;;;;;;;25.20;16.75;;;10.10;99.90;;;;;;5088481;28;20043;-79
2021/05/14 05:23:51;;;;;;;26.92;18.02;;;10.20;99.90;;;;;;5105512;28;20592;-78
2021/05/14 05:26:18;;;;;;;27.92;18.13;;;10.30;99.90;;;;;;5087042;28;20400;-78
2021/05/14 05:28:44;;;;;;;21.50;15.88;;;10.30;99.90;;;;;;5104858;28;20109;-78
2021/05/14 05:31:11;;;;;;;21.73;15.13;;;10.30;99.90;;;;;;5106423;28;20060;-78
2021/05/14 05:33:38;;;;;;;17.75;13.40;;;10.30;99.90;;;;;;5107018;28;20055;-78
2021/05/14 05:36:05;;;;;;;19.30;14.23;;;10.40;99.90;;;;;;5104469;28;20048;-78
2021/05/14 05:38:33;;;;;;;17.45;15.00;;;10.40;99.90;;;;;;5104212;28;20101;-78
2021/05/14 05:40:59;;;;;;;16.67;14.20;;;10.40;99.90;;;;;;5104943;28;20051;-78
2021/05/14 05:43:26;;;;;;;22.60;14.52;;;10.50;99.90;;;;;;5088957;28;20293;-78
2021/05/14 05:45:53;;;;;;;20.40;14.20;;;10.50;99.90;;;;;;5104714;28;20044;-78
2021/05/14 05:48:20;;;;;;;16.77;14.30;;;10.50;99.90;;;;;;5103617;28;20048;-78
2021/05/14 05:50:50;;;;;;;17.73;13.25;;;10.60;99.90;;;;;;5104138;28;20048;-78
2021/05/14 05:53:17;;;;;;;16.27;12.65;;;10.60;99.90;;;;;;5102387;28;20109;-78
2021/05/14 05:55:44;;;;;;;10.23;9.23;;;10.70;99.90;;;;;;5104372;28;20074;-78
2021/05/14 05:58:13;;;;;;;11.55;10.32;;;10.80;99.90;;;;;;5102265;28;20051;-78
2021/05/14 06:00:41;;;;;;;12.02;10.73;;;11.00;99.90;;;;;;5101258;28;20040;-78
2021/05/14 06:03:10;;;;;;;9.13;8.23;;;11.10;99.90;;;;;;5101771;28;20113;-78
2021/05/14 06:05:38;;;;;;;9.10;7.90;;;11.30;99.90;;;;;;5101771;28;20051;-78
2021/05/14 06:08:05;;;;;;;17.10;12.77;;;11.40;99.90;;;;;;5084202;28;20102;-78
2021/05/14 06:10:32;;;;;;;13.50;10.98;;;11.40;99.90;;;;;;5101331;28;20052;-78
2021/05/14 06:12:59;;;;;;;13.05;10.57;;;11.50;99.90;;;;;;5101985;28;20092;-78
2021/05/14 06:15:25;;;;;;;10.73;9.07;;;11.60;99.90;;;;;;5082957;28;20056;-78
2021/05/14 06:17:52;;;;;;;11.70;7.97;;;12.00;99.90;;;;;;5101692;28;20052;-78
2021/05/14 06:20:22;;;;;;;10.18;7.20;;;12.40;99.90;;;;;;5104947;28;20481;-78
2021/05/14 06:22:49;;;;;;;9.73;6.90;;;12.60;99.90;;;;;;5090802;28;20044;-78
2021/05/14 06:25:18;;;;;;;5.93;5.47;;;12.80;99.90;;;;;;5108769;28;20048;-78
2021/05/14 06:27:45;;;;;;;9.65;6.60;;;12.80;99.90;;;;;;5107385;28;20424;-78
2021/05/14 06:30:13;;;;;;;11.38;6.10;;;12.80;99.90;;;;;;5107181;28;20056;-78
2021/05/14 06:32:39;;;;;;;7.32;5.78;;;12.80;99.90;;;;;;5106509;28;20047;-78
2021/05/14 06:35:07;;;;;;;9.18;6.00;;;12.80;99.90;;;;;;5105715;28;20090;-78
2021/05/14 06:37:37;;;;;;;5.63;5.13;;;13.10;99.90;;;;;;5105967;28;20086;-78
2021/05/14 06:40:08;;;;;;;6.75;4.57;;;13.50;99.90;;;;;;5104978;28;20044;-78
2021/05/14 06:42:35;;;;;;;8.20;5.25;;;13.90;99.90;;;;;;5086646;28;20044;-78
2021/05/14 06:45:03;;;;;;;8.13;5.10;;;14.30;99.90;;;;;;5104370;28;20052;-78
2021/05/14 06:47:31;;;;;;;7.10;4.80;;;14.70;99.90;;;;;;5102427;28;20442;-79
2021/05/14 06:50:02;;;;;;;4.32;3.92;;;14.90;99.90;;;;;;5098531;28;20048;-79
2021/05/14 06:52:30;;;;;;;7.53;4.65;;;15.00;99.90;;;;;;5101985;28;20091;-79
2021/05/14 06:54:57;;;;;;;4.78;4.10;;;14.70;99.90;;;;;;5103389;28;20044;-78
2021/05/14 06:57:24;;;;;;;6.40;5.18;;;14.70;99.90;;;;;;5102928;28;20048;-78
2021/05/14 06:59:50;;;;;;;4.10;3.80;;;14.60;99.90;;;;;;5103275;28;20047;-78
2021/05/14 07:02:17;;;;;;;3.92;3.33;;;14.50;99.90;;;;;;5103879;28;20047;-79
2021/05/14 07:04:44;;;;;;;3.20;3.00;;;14.30;99.90;;;;;;5105130;28;20504;-79
2021/05/14 07:07:10;;;;;;;8.48;3.50;;;14.10;99.90;;;;;;5104551;28;20069;-78
2021/05/14 07:09:37;;;;;;;6.88;5.03;;;13.90;99.90;;;;;;5104270;28;20040;-78
2021/05/14 07:12:04;;;;;;;5.22;4.20;;;13.80;99.90;;;;;;5103714;28;20488;-79
2021/05/14 07:14:31;;;;;;;4.15;3.80;;;13.80;99.90;;;;;;5103553;28;20412;-78
2021/05/14 07:16:58;;;;;;;5.30;4.07;;;13.90;99.90;;;;;;5102329;28;20055;-78
2021/05/14 07:19:26;;;;;;;5.03;4.53;;;14.00;99.90;;;;;;5101896;28;20412;-78
2021/05/14 07:21:54;;;;;;;4.47;4.03;;;14.20;99.90;;;;;;5101981;28;20048;-78
2021/05/14 07:24:22;;;;;;;7.50;3.80;;;14.20;99.90;;;;;;5100922;28;20098;-78
2021/05/14 07:26:49;;;;;;;5.57;4.18;;;14.40;99.90;;;;;;5084028;28;20055;-79
2021/05/14 07:29:16;;;;;;;6.10;4.40;;;14.60;99.90;;;;;;5101628;28;20040;-79
2021/05/14 07:31:42;;;;;;;4.22;3.90;;;14.60;99.90;;;;;;5081990;28;20071;-78
2021/05/14 07:34:09;;;;;;;4.07;3.60;;;14.50;99.90;;;;;;5083147;28;20496;-79
2021/05/14 07:36:41;;;;;;;4.90;3.80;;;14.40;99.90;;;;;;5101049;28;20052;-78
2021/05/14 07:39:08;;;;;;;4.18;3.78;;;14.40;99.90;;;;;;5101179;28;20512;-78
2021/05/14 07:41:35;;;;;;;4.00;3.70;;;14.40;99.90;;;;;;5100590;28;20062;-79
2021/05/14 07:44:02;;;;;;;4.13;3.72;;;14.40;99.90;;;;;;5100668;28;20103;-78
2021/05/14 07:46:29;;;;;;;5.15;4.63;;;14.40;99.90;;;;;;5101109;28;20074;-78
2021/05/14 07:48:56;;;;;;;5.13;4.63;;;14.40;99.90;;;;;;5080751;28;20048;-79
2021/05/14 07:51:22;;;;;;;4.07;3.78;;;14.40;99.90;;;;;;5099479;28;20146;-78
2021/05/14 07:53:49;;;;;;;5.88;3.80;;;14.30;99.90;;;;;;5098886;28;20090;-79
2021/05/14 07:56:16;;;;;;;5.45;3.67;;;14.30;99.90;;;;;;5098180;28;20094;-78
2021/05/14 07:58:43;;;;;;;4.97;3.40;;;14.20;99.90;;;;;;5098062;28;20083;-78
2021/05/14 08:01:11;;;;;;;4.03;3.60;;;14.20;99.90;;;;;;5079980;28;20080;-78
2021/05/14 08:03:38;;;;;;;3.50;2.85;;;14.30;99.90;;;;;;5098070;28;20127;-79
2021/05/14 08:06:05;;;;;;;2.90;2.80;;;14.50;99.90;;;;;;5097379;28;20059;-78
2021/05/14 08:08:36;;;;;;;3.45;2.80;;;14.70;99.90;;;;;;5079979;28;20087;-78
2021/05/14 08:11:03;;;;;;;9.82;7.57;;;15.00;99.90;;;;;;5100547;28;20321;-79
2021/05/14 08:13:29;;;;;;;11.32;7.80;;;15.10;99.90;;;;;;5081119;28;20085;-78
2021/05/14 08:15:56;;;;;;;5.88;3.75;;;15.00;99.90;;;;;;5098965;28;20094;-78
2021/05/14 08:18:27;;;;;;;4.72;4.10;;;14.90;99.90;;;;;;5098103;28;20048;-78
2021/05/14 08:20:54;;;;;;;14.10;12.63;;;14.80;99.90;;;;;;5080328;28;20123;-78
2021/05/14 08:23:21;;;;;;;8.65;7.85;;;14.80;99.90;;;;;;5096104;28;20048;-79
2021/05/14 08:25:49;;;;;;;6.22;4.97;;;14.70;99.90;;;;;;5097877;28;20513;-79
2021/05/14 08:28:17;;;;;;;5.18;3.10;;;14.70;99.90;;;;;;5098257;28;20097;-78
2021/05/14 08:30:45;;;;;;;2.47;2.28;;;14.70;99.90;;;;;;5079669;28;20139;-79
2021/05/14 08:33:12;;;;;;;2.35;2.20;;;14.60;99.90;;;;;;5096722;28;20055;-78
2021/05/14 08:35:39;;;;;;;2.83;2.05;;;14.80;99.90;;;;;;5097774;28;20103;-79
2021/05/14 08:38:07;;;;;;;2.20;2.10;;;15.00;99.90;;;;;;5078926;28;20052;-79
2021/05/14 08:40:37;;;;;;;2.00;1.90;;;15.20;99.90;;;;;;5097393;28;20090;-79
2021/05/14 08:43:07;;;;;;;4.57;2.00;;;15.50;99.90;;;;;;5096069;28;20554;-79
2021/05/14 08:45:34;;;;;;;2.05;1.95;;;15.80;99.90;;;;;;5078520;28;20083;-78
2021/05/14 08:48:03;;;;;;;2.17;1.98;;;16.10;99.90;;;;;;5096616;28;20439;-79
2021/05/14 08:50:31;;;;;;;1.70;1.60;;;16.20;99.90;;;;;;5095719;28;20066;-79
2021/05/14 08:52:58;;;;;;;4.40;2.00;;;16.40;99.90;;;;;;5098439;28;20048;-79
2021/05/14 08:55:24;;;;;;;2.58;2.38;;;16.60;99.90;;;;;;5100012;28;20083;-79
2021/05/14 08:57:52;;;;;;;1.48;1.48;;;16.70;99.90;;;;;;5100185;28;20553;-79
2021/05/14 09:00:20;;;;;;;3.28;1.88;;;16.70;99.90;;;;;;5106887;28;20055;-79
2021/05/14 09:02:47;;;;;;;1.83;1.30;;;16.80;99.90;;;;;;5105812;28;20074;-79
2021/05/14 09:05:32;;;;;;;1.80;1.70;;;17.00;99.90;;;;;;5080365;28;20084;-79
2021/05/14 09:08:01;;;;;;;2.20;1.95;;;16.80;99.90;;;;;;5097766;28;20101;-79
2021/05/14 09:10:33;;;;;;;3.30;2.08;;;16.70;99.90;;;;;;5097543;28;20052;-79
2021/05/14 09:13:09;;;;;;;3.38;2.22;;;16.70;99.90;;;;;;5097294;28;20082;-79
2021/05/14 09:15:37;;;;;;;2.22;2.10;;;16.90;99.90;;;;;;5078659;28;20486;-79
2021/05/14 09:18:19;;;;;;;2.25;2.05;;;17.30;99.90;;;;;;5096375;28;20052;-79
2021/05/14 09:20:53;;;;;;;4.18;1.95;;;17.40;99.90;;;;;;5096047;28;20098;-79
2021/05/14 09:23:20;;;;;;;;;;;17.30;99.90;;;;;;5078315;28;20129;-78
2021/05/14 09:26:11;;;;;;;2.83;1.73;;;17.30;99.90;;;;;;5077490;28;19920;-78
2021/05/14 09:28:39;;;;;;;1.98;1.63;;;18.10;99.90;;;;;;5096376;28;20075;-78
2021/05/14 09:31:07;;;;;;;4.07;1.50;;;18.50;99.90;;;;;;5096535;28;20105;-80
2021/05/14 09:33:36;;;;;;;2.97;1.55;;;18.40;99.90;;;;;;5096432;28;20048;-79
2021/05/14 09:36:09;;;;;;;1.98;1.30;;;19.20;99.90;;;;;;5096371;28;20052;-78
2021/05/14 09:38:53;;;;;;;1.27;1.10;;;19.40;99.90;;;;;;5096142;28;20068;-79
2021/05/14 09:41:29;;;;;;;3.22;1.33;;;19.70;99.90;;;;;;5096355;28;20062;-79
2021/05/14 09:44:05;;;;;;;2.15;1.10;;;19.90;99.90;;;;;;5078655;28;20048;-78
2021/05/14 09:46:44;;;;;;;1.70;1.20;;;19.90;99.90;;;;;;5097038;28;20044;-79
2021/05/14 09:49:16;;;;;;;3.03;1.25;;;20.10;99.90;;;;;;5079281;28;20055;-79
2021/05/14 09:51:48;;;;;;;2.33;1.50;;;20.30;99.90;;;;;;5079425;28;20466;-79
2021/05/14 09:54:25;;;;;;;1.27;1.17;;;21.80;99.90;;;;;;5097052;28;20079;-79
2021/05/14 09:57:18;;;;;;;3.55;1.42;;;22.00;99.90;;;;;;5079211;28;20052;-80
2021/05/14 09:59:48;;;;;;;2.83;1.40;;;21.40;99.90;;;;;;5079822;28;20044;-80
2021/05/14 10:02:36;;;;;;;4.20;1.38;;;21.60;99.90;;;;;;5097438;28;20443;-80
2021/05/14 10:05:08;;;;;;;1.30;1.20;;;21.10;99.90;;;;;;5098126;28;20044;-80
2021/05/14 10:07:36;;;;;;;3.00;1.33;;;21.90;99.90;;;;;;5080561;28;20052;-80
2021/05/14 10:10:09;;;;;;;1.52;1.23;;;23.80;99.70;;;;;;5080867;28;20101;-80
2021/05/14 10:12:36;;;;;;;2.93;1.27;;;24.30;97.90;;;;;;5098467;28;20044;-81
2021/05/14 10:15:07;;;;;;;2.20;1.42;;;22.90;98.30;;;;;;5099275;28;20282;-79
2021/05/14 10:17:39;;;;;;;3.65;1.40;;;21.60;99.90;;;;;;5097310;28;20072;-81
2021/05/14 10:20:15;;;;;;;2.20;1.52;;;20.70;99.90;;;;;;5077374;28;20048;-81
2021/05/14 10:22:43;;;;;;;1.50;1.40;;;20.00;99.90;;;;;;5077617;28;20412;-81
2021/05/14 10:25:12;;;;;;;1.52;1.42;;;19.40;99.90;;;;;;5095126;28;20094;-81
2021/05/14 10:27:41;;;;;;;4.07;1.55;;;19.20;99.90;;;;;;5078865;28;20079;-82
2021/05/14 10:30:09;;;;;;;3.22;1.48;;;19.40;99.90;;;;;;5096382;28;20127;-81
2021/05/14 10:32:45;;;;;;;6.60;2.55;;;19.20;99.90;;;;;;5077743;28;20048;-80
2021/05/14 10:35:26;;;;;;;3.08;1.60;;;18.80;99.90;;;;;;5097766;28;20056;-83
2021/05/14 10:38:04;;;;;;;5.47;1.70;;;19.20;99.90;;;;;;5097066;28;20052;-82
2021/05/14 10:40:31;;;;;;;2.03;1.40;;;19.40;99.90;;;;;;5100598;28;20456;-84
2021/05/14 10:43:01;;;;;;;2.47;1.30;;;19.60;99.90;;;;;;5090985;28;20048;-84
2021/05/14 10:45:41;;;;;;;1.17;1.02;;;20.30;99.90;;;;;;5075374;28;20121;-83
2021/05/14 10:48:20;;;;;;;1.30;1.25;;;21.90;99.90;;;;;;5092984;28;20044;-82
2021/05/14 10:50:50;;;;;;;2.47;1.38;;;23.40;99.90;;;;;;5075332;28;20076;-84
2021/05/14 10:53:17;;;;;;;7.53;1.35;;;25.00;88.80;;;;;;5074777;28;20063;-83
2021/05/14 10:55:45;;;;;;;2.15;1.23;;;25.30;84.20;;;;;;5092777;28;20048;-83
2021/05/14 10:58:37;;;;;;;1.83;0.98;;;24.40;79.20;;;;;;5074833;28;20058;-82
2021/05/14 11:01:04;;;;;;;1.48;1.08;;;23.80;85.40;;;;;;5093084;28;20076;-82
2021/05/14 11:03:32;;;;;;;2.53;1.13;;;22.40;89.20;;;;;;5093534;28;20143;-83
2021/05/14 11:06:19;;;;;;;2.03;1.17;;;21.10;97.10;;;;;;5093994;28;20044;-83
2021/05/14 11:09:06;;;;;;;1.50;1.40;;;19.80;99.90;;;;;;5079642;28;20397;-83
2021/05/14 11:12:00;;;;;;;;;;;18.70;99.90;;;;;;5082090;28;20066;-83
2021/05/14 11:14:48;;;;;;;6.53;1.70;;;18.00;99.90;;;;;;5097686;28;19920;-84
2021/05/14 11:17:16;;;;;;;1.75;1.65;;;17.70;99.90;;;;;;5079977;28;20091;-83
2021/05/14 11:19:48;;;;;;;3.70;1.45;;;18.20;99.90;;;;;;5098402;28;20044;-83
2021/05/14 11:22:16;;;;;;;2.65;1.42;;;18.80;99.90;;;;;;5098815;28;20079;-83
2021/05/14 11:24:48;;;;;;;1.40;1.30;;;18.50;99.90;;;;;;5098998;28;20040;-83
2021/05/14 11:27:51;;;;;;;3.58;1.60;;;18.10;99.90;;;;;;5079550;28;20419;-82
2021/05/14 11:30:19;;;;;;;2.25;1.30;;;17.90;99.90;;;;;;5079833;28;20489;-83
2021/05/14 11:32:47;;;;;;;1.90;1.73;;;17.80;99.90;;;;;;5080369;28;20556;-84
2021/05/14 11:35:22;;;;;;;2.13;1.80;;;17.50;99.90;;;;;;5098294;28;20055;-83
2021/05/14 11:38:04;;;;;;;7.50;6.25;;;17.30;99.90;;;;;;5097398;28;20131;-83
2021/05/14 11:40:34;;;;;;;3.97;3.30;;;17.60;99.90;;;;;;5096406;28;20500;-83
2021/05/14 11:43:05;;;;;;;4.10;2.40;;;18.30;99.90;;;;;;5097018;28;20511;-82
2021/05/14 11:45:32;;;;;;;1.73;1.63;;;18.90;99.90;;;;;;5097478;28;20083;-82
2021/05/14 11:48:01;;;;;;;2.25;1.10;;;19.40;99.90;;;;;;5097162;28;20079;-81
2021/05/14 11:50:32;;;;;;;0.80;0.80;;;20.00;99.90;;;;;;5078169;28;20076;-82
2021/05/14 11:53:00;;;;;;;1.23;1.10;;;21.00;99.90;;;;;;5096029;28;20128;-81
2021/05/14 11:55:28;;;;;;;1.95;0.80;;;21.60;99.90;;;;;;5078456;28;20105;-82
2021/05/14 11:57:58;;;;;;;1.63;0.50;;;21.90;97.90;;;;;;5078650;28;20080;-81
2021/05/14 12:00:39;;;;;;;1.83;1.00;;;21.20;97.00;;;;;;5096935;28;20492;-82
2021/05/14 12:03:08;;;;;;;2.78;0.70;;;20.90;96.50;;;;;;5096314;28;20122;-82
2021/05/14 12:05:36;;;;;;;3.67;1.40;;;20.70;96.80;;;;;;5079206;28;20044;-82
2021/05/14 12:08:10;;;;;;;0.77;0.60;;;20.80;95.70;;;;;;5078753;28;20070;-81
2021/05/14 12:11:08;;;;;;;1.17;0.60;;;20.60;95.20;;;;;;5078309;28;20105;-82
2021/05/14 12:13:40;;;;;;;2.28;0.60;;;20.40;96.60;;;;;;5096609;28;20054;-81
2021/05/14 12:16:08;;;;;;;0.40;0.40;;;20.40;97.40;;;;;;5096074;28;20051;-82
2021/05/14 12:18:44;;;;;;;2.38;0.70;;;20.60;98.40;;;;;;5076487;28;20489;-81
2021/05/14 12:21:22;;;;;;;3.10;0.60;;;20.90;99.90;;;;;;5096513;28;20089;-83
2021/05/14 12:23:50;;;;;;;1.50;0.68;;;21.80;98.10;;;;;;5096409;28;20048;-81
2021/05/14 12:26:17;;;;;;;2.15;0.73;;;21.50;90.80;;;;;;5096948;28;20048;-81
2021/05/14 12:28:46;;;;;;;2.47;0.60;;;20.20;92.80;;;;;;5095687;28;20118;-81
2021/05/14 12:31:27;;;;;;;1.70;1.13;;;19.60;99.90;;;;;;5081302;28;20087;-83
2021/05/14 12:34:01;;;;;;;7.43;1.80;;;19.30;99.90;;;;;;5084034;28;20050;-85
2021/05/14 12:36:29;;;;;;;2.30;1.00;;;18.40;99.90;;;;;;5084268;28;20083;-85
2021/05/14 12:39:13;;;;;;;3.60;1.50;;;17.50;99.90;;;;;;5077178;28;20087;-84
2021/05/14 12:41:51;;;;;;;3.40;2.10;;;16.60;99.90;;;;;;5079582;28;20099;-84
2021/05/14 12:44:32;;;;;;;6.30;1.95;;;15.70;99.90;;;;;;5081516;28;20461;-85
2021/05/14 12:47:12;;;;;;;1.95;1.85;;;14.90;99.90;;;;;;5102893;28;20401;-85
2021/05/14 12:50:03;;;;;;;5.30;1.50;;;14.40;99.90;;;;;;5096820;28;20123;-85
2021/05/14 12:52:32;;;;;;;4.82;2.20;;;14.10;99.90;;;;;;5097156;28;20048;-84
2021/05/14 12:55:17;;;;;;;2.47;2.28;;;14.00;99.90;;;;;;5080426;28;20047;-84
2021/05/14 12:57:50;;;;;;;4.07;2.40;;;13.90;99.90;;;;;;5099311;28;20052;-85
2021/05/14 13:00:23;;;;;;;2.33;1.63;;;14.40;99.90;;;;;;5084224;28;20051;-84